Time;durP1;ratioP1;P1;durP2;ratioP2;P2;SDS_P1;SDS_P2;PMS_P1;PMS_P2;Temp;Humidity;BMP_temperature;BMP_pressure;BME280_temperature;BME280_humidity;BME280_pressure;Samples;Min_cycle;Max_cycle;Signal;HPM_P1;HPM_P2
2022/10/06 00:02:20;;;;;;;4.78;4.38;;;;;;;;;;4954026;28;20054;-74
2022/10/06 00:04:46;;;;;;;4.78;4.47;;;;;;;;;;4971550;28;20047;-73
2022/10/06 00:07:13;;;;;;;8.52;4.25;;;;;;;;;;4953938;28;20113;-74
2022/10/06 00:09:38;;;;;;;5.22;4.40;;;;;;;;;;4938261;28;20045;-73
2022/10/06 00:12:04;;;;;;;4.47;4.07;;;;;;;;;;4953803;28;20125;-74
2022/10/06 00:14:30;;;;;;;5.03;3.95;;;;;;;;;;4953978;28;20065;-72
2022/10/06 00:16:56;;;;;;;5.28;4.80;;;;;;;;;;4954087;28;20500;-72
2022/10/06 00:19:22;;;;;;;4.50;4.10;;;;;;;;;;4971069;28;20116;-73
2022/10/06 00:21:48;;;;;;;4.50;4.20;;;;;;;;;;4953933;28;20463;-74
2022/10/06 00:24:14;;;;;;;4.85;4.40;;;;;;;;;;4953525;28;20053;-72
2022/10/06 00:26:40;;;;;;;4.65;4.25;;;;;;;;;;4970823;28;20038;-73
2022/10/06 00:29:06;;;;;;;5.05;4.00;;;;;;;;;;4953686;28;20055;-73
2022/10/06 00:31:33;;;;;;;5.43;4.07;;;;;;;;;;4953552;28;20039;-73
2022/10/06 00:33:59;;;;;;;4.70;4.30;;;;;;;;;;4953707;28;20117;-73
2022/10/06 00:36:25;;;;;;;4.90;4.50;;;;;;;;;;4937712;28;20536;-74
2022/10/06 00:38:50;;;;;;;4.15;3.85;;;;;;;;;;4970787;28;20053;-74
2022/10/06 00:41:16;;;;;;;6.25;4.03;;;;;;;;;;4953478;28;20065;-73
2022/10/06 00:43:44;;;;;;;4.22;3.65;;;;;;;;;;4953484;28;20047;-74
2022/10/06 00:46:18;;;;;;;6.03;5.45;;;;;;;;;;4953061;28;20061;-73
2022/10/06 00:48:45;;;;;;;3.88;3.60;;;;;;;;;;4952920;28;20059;-75
2022/10/06 00:51:11;;;;;;;4.20;3.90;;;;;;;;;;4953204;28;20042;-74
2022/10/06 00:53:37;;;;;;;7.38;3.78;;;;;;;;;;4970650;28;20051;-74
2022/10/06 00:56:03;;;;;;;3.90;3.60;;;;;;;;;;4937188;28;20041;-75
2022/10/06 00:58:30;;;;;;;4.20;3.55;;;;;;;;;;4970687;28;20055;-74
2022/10/06 01:00:56;;;;;;;3.65;3.35;;;;;;;;;;4970373;28;20431;-74
2022/10/06 01:03:41;;;;;;;3.10;3.00;;;;;;;;;;4936854;28;20109;-73
2022/10/06 01:06:07;;;;;;;3.90;3.60;;;;;;;;;;4953319;28;20042;-73
2022/10/06 01:08:33;;;;;;;3.53;3.30;;;;;;;;;;4970860;28;20534;-73
2022/10/06 01:10:59;;;;;;;3.30;3.10;;;;;;;;;;4954099;28;20034;-80
2022/10/06 01:13:28;;;;;;;3.42;3.10;;;;;;;;;;4964635;28;20074;-80
2022/10/06 01:15:56;;;;;;;3.28;3.08;;;;;;;;;;4981033;28;20231;-80
2022/10/06 01:18:25;;;;;;;4.45;3.17;;;;;;;;;;4946238;28;20115;-79
2022/10/06 01:21:01;;;;;;;3.38;3.13;;;;;;;;;;4942766;28;20041;-78
2022/10/06 01:23:27;;;;;;;3.50;3.20;;;;;;;;;;4937346;28;20055;-77
2022/10/06 01:25:52;;;;;;;3.85;3.30;;;;;;;;;;4941071;28;20468;-77
2022/10/06 01:28:18;;;;;;;3.17;2.97;;;;;;;;;;4918123;29;20054;-77
2022/10/06 01:30:49;;;;;;;3.42;3.15;;;;;;;;;;4918221;29;20035;-77
2022/10/06 01:33:18;;;;;;;7.07;6.22;;;;;;;;;;4936724;28;20042;-78
2022/10/06 01:35:45;;;;;;;3.25;3.05;;;;;;;;;;4952619;28;20121;-77
2022/10/06 01:38:11;;;;;;;3.20;3.00;;;;;;;;;;4970048;28;20519;-76
2022/10/06 01:40:37;;;;;;;3.15;2.95;;;;;;;;;;4952836;28;20049;-78
2022/10/06 01:43:03;;;;;;;3.65;3.35;;;;;;;;;;4952581;28;20447;-79
2022/10/06 01:45:28;;;;;;;3.58;3.28;;;;;;;;;;4952582;28;20438;-77
2022/10/06 01:47:54;;;;;;;3.60;3.30;;;;;;;;;;4969594;28;20058;-77
2022/10/06 01:50:21;;;;;;;3.35;3.15;;;;;;;;;;4952377;28;20125;-78
2022/10/06 01:52:47;;;;;;;3.50;3.30;;;;;;;;;;4969785;28;20129;-77
2022/10/06 01:55:13;;;;;;;5.82;3.25;;;;;;;;;;4952225;28;20047;-79
2022/10/06 01:57:40;;;;;;;3.30;3.10;;;;;;;;;;4936551;28;20494;-78
2022/10/06 02:00:08;;;;;;;3.35;3.05;;;;;;;;;;4952097;28;20059;-78
2022/10/06 02:02:38;;;;;;;3.47;3.28;;;;;;;;;;4953120;28;20043;-79
2022/10/06 02:05:05;;;;;;;6.47;3.45;;;;;;;;;;4952578;28;20081;-78
2022/10/06 02:07:33;;;;;;;3.63;3.40;;;;;;;;;;4952118;28;20043;-78
2022/10/06 02:09:59;;;;;;;3.83;3.53;;;;;;;;;;4969414;28;20498;-78
2022/10/06 02:12:25;;;;;;;6.93;3.78;;;;;;;;;;4952110;28;20039;-77
2022/10/06 02:14:50;;;;;;;5.70;3.80;;;;;;;;;;4952106;28;20498;-78
2022/10/06 02:17:16;;;;;;;3.92;3.63;;;;;;;;;;4969241;28;20042;-78
2022/10/06 02:19:42;;;;;;;5.05;3.85;;;;;;;;;;4952311;28;20051;-78
2022/10/06 02:22:08;;;;;;;4.03;3.70;;;;;;;;;;4969102;28;20059;-78
2022/10/06 02:24:34;;;;;;;4.75;4.30;;;;;;;;;;4932419;28;20188;-78
2022/10/06 02:27:00;;;;;;;5.68;4.20;;;;;;;;;;4917111;28;20043;-77
2022/10/06 02:29:26;;;;;;;4.60;4.15;;;;;;;;;;4932828;28;20631;-79
2022/10/06 02:31:54;;;;;;;4.15;3.85;;;;;;;;;;4932987;28;20052;-78
2022/10/06 02:34:20;;;;;;;4.85;4.30;;;;;;;;;;4932710;28;20050;-78
2022/10/06 02:36:46;;;;;;;4.45;4.15;;;;;;;;;;4949861;28;20039;-78
2022/10/06 02:39:13;;;;;;;4.88;4.30;;;;;;;;;;4932786;29;20098;-79
2022/10/06 02:41:39;;;;;;;4.50;4.20;;;;;;;;;;4949781;28;20046;-77
2022/10/06 02:44:05;;;;;;;4.70;4.40;;;;;;;;;;4917173;28;20051;-77
2022/10/06 02:46:31;;;;;;;6.50;4.47;;;;;;;;;;4916439;29;20043;-77
2022/10/06 02:48:59;;;;;;;6.78;5.03;;;;;;;;;;4932871;28;20051;-78
2022/10/06 02:51:25;;;;;;;5.15;4.75;;;;;;;;;;4938039;28;20058;-78
2022/10/06 02:53:53;;;;;;;4.78;4.38;;;;;;;;;;4952161;28;20051;-77
2022/10/06 02:56:20;;;;;;;4.50;4.10;;;;;;;;;;4935719;28;20049;-78
2022/10/06 02:58:49;;;;;;;4.75;4.45;;;;;;;;;;4969367;28;20054;-79
2022/10/06 03:01:22;;;;;;;4.90;4.40;;;;;;;;;;4951740;28;20046;-79
2022/10/06 03:03:50;;;;;;;9.35;4.45;;;;;;;;;;4951705;28;20043;-79
2022/10/06 03:06:23;;;;;;;5.70;4.82;;;;;;;;;;4945931;28;20047;-78
2022/10/06 03:09:18;;;;;;;14.77;4.35;;;;;;;;;;4916348;28;20062;-77
2022/10/06 03:11:45;;;;;;;8.43;4.50;;;;;;;;;;4926603;29;20047;-77
2022/10/06 03:14:16;;;;;;;6.45;4.47;;;;;;;;;;4941799;28;20042;-79
2022/10/06 03:16:42;;;;;;;4.82;3.90;;;;;;;;;;4955425;28;20113;-78
2022/10/06 03:19:21;;;;;;;11.40;5.18;;;;;;;;;;4941006;28;20508;-79
2022/10/06 03:21:47;;;;;;;4.75;4.45;;;;;;;;;;4955031;28;20125;-78
2022/10/06 03:24:13;;;;;;;5.35;4.50;;;;;;;;;;4938887;28;20059;-78
2022/10/06 03:26:42;;;;;;;5.38;4.50;;;;;;;;;;4939251;28;20045;-78
2022/10/06 03:29:09;;;;;;;5.32;4.78;;;;;;;;;;4972052;28;20439;-78
2022/10/06 03:31:34;;;;;;;6.55;4.80;;;;;;;;;;4922814;28;20038;-78
2022/10/06 03:34:01;;;;;;;6.18;5.68;;;;;;;;;;4954845;28;20078;-79
2022/10/06 03:36:28;;;;;;;5.65;5.20;;;;;;;;;;4938699;28;20074;-78
2022/10/06 03:38:54;;;;;;;6.32;5.72;;;;;;;;;;4939138;28;20051;-78
2022/10/06 03:41:22;;;;;;;5.03;4.50;;;;;;;;;;4954507;28;20038;-79
2022/10/06 03:43:48;;;;;;;6.65;5.95;;;;;;;;;;4972094;28;20146;-78
2022/10/06 03:46:15;;;;;;;8.40;5.40;;;;;;;;;;4954335;28;20074;-77
2022/10/06 03:48:41;;;;;;;5.72;5.25;;;;;;;;;;4922879;28;20065;-79
2022/10/06 03:51:11;;;;;;;7.00;5.80;;;;;;;;;;4937122;28;20073;-77
2022/10/06 03:53:37;;;;;;;6.38;5.78;;;;;;;;;;4935611;28;20134;-77
2022/10/06 03:56:04;;;;;;;8.05;7.18;;;;;;;;;;4935708;29;20039;-78
2022/10/06 03:58:31;;;;;;;11.70;7.28;;;;;;;;;;4919090;28;20086;-76
2022/10/06 04:00:57;;;;;;;7.30;6.57;;;;;;;;;;4971261;28;20038;-78
2022/10/06 04:03:23;;;;;;;8.23;7.43;;;;;;;;;;4964200;28;20047;-77
2022/10/06 04:05:56;;;;;;;7.43;6.82;;;;;;;;;;4934995;28;20411;-77
2022/10/06 04:08:23;;;;;;;7.43;6.82;;;;;;;;;;4903464;29;20066;-76
2022/10/06 04:10:49;;;;;;;7.50;6.90;;;;;;;;;;4935021;28;20043;-76
2022/10/06 04:13:19;;;;;;;10.95;6.57;;;;;;;;;;4903620;28;20081;-77
2022/10/06 04:15:45;;;;;;;9.95;7.10;;;;;;;;;;4919299;28;20039;-78
2022/10/06 04:18:11;;;;;;;7.70;6.93;;;;;;;;;;4935066;28;20076;-80
2022/10/06 04:20:37;;;;;;;7.03;6.43;;;;;;;;;;4934833;29;20077;-79
2022/10/06 04:23:04;;;;;;;10.32;7.40;;;;;;;;;;4951764;28;20055;-79
2022/10/06 04:25:31;;;;;;;8.35;7.43;;;;;;;;;;4934606;28;20113;-78
2022/10/06 04:27:57;;;;;;;15.18;7.40;;;;;;;;;;4918926;29;20087;-78
2022/10/06 04:30:24;;;;;;;7.70;6.93;;;;;;;;;;4951249;28;20070;-77
2022/10/06 04:32:50;;;;;;;9.73;7.68;;;;;;;;;;4971212;28;20566;-78
2022/10/06 04:35:16;;;;;;;11.88;7.60;;;;;;;;;;4937908;28;20134;-79
2022/10/06 04:37:42;;;;;;;14.73;7.72;;;;;;;;;;4937616;28;20049;-79
2022/10/06 04:40:08;;;;;;;11.68;8.13;;;;;;;;;;4937836;28;20051;-79
2022/10/06 04:42:36;;;;;;;13.10;8.38;;;;;;;;;;4953662;28;20035;-79
2022/10/06 04:45:07;;;;;;;9.65;7.95;;;;;;;;;;4953956;28;20601;-78
2022/10/06 04:47:34;;;;;;;10.43;7.57;;;;;;;;;;4953605;28;20042;-78
2022/10/06 04:50:00;;;;;;;10.88;8.38;;;;;;;;;;4921982;28;20039;-79
2022/10/06 04:52:26;;;;;;;10.75;8.30;;;;;;;;;;4937465;28;20112;-78
2022/10/06 04:54:53;;;;;;;10.45;7.82;;;;;;;;;;4922281;28;20102;-78
2022/10/06 04:57:19;;;;;;;11.00;8.02;;;;;;;;;;4970953;28;20519;-79
2022/10/06 05:02:30;;;;;;;8.57;7.25;;;;;;;;;;4954330;28;20039;-78
2022/10/06 05:04:57;;;;;;;10.35;7.38;;;;;;;;;;4925697;28;20042;-79
2022/10/06 05:07:23;;;;;;;9.07;8.18;;;;;;;;;;4968102;28;20047;-77
2022/10/06 05:09:50;;;;;;;9.35;8.48;;;;;;;;;;4966211;28;20130;-78
2022/10/06 05:12:16;;;;;;;9.35;8.45;;;;;;;;;;4960869;28;20066;-80
2022/10/06 05:14:45;;;;;;;9.23;8.07;;;;;;;;;;4953988;28;20084;-79
2022/10/06 05:17:11;;;;;;;8.85;8.05;;;;;;;;;;4937743;28;20043;-79
2022/10/06 05:19:37;;;;;;;11.65;9.00;;;;;;;;;;4953225;28;20105;-79
2022/10/06 05:22:04;;;;;;;12.40;10.48;;;;;;;;;;4953215;28;20057;-79
2022/10/06 05:24:31;;;;;;;12.95;9.60;;;;;;;;;;4937286;28;20598;-80
2022/10/06 05:27:00;;;;;;;14.77;10.50;;;;;;;;;;4970606;28;20138;-79
2022/10/06 05:29:26;;;;;;;13.27;10.15;;;;;;;;;;4936923;28;20137;-80
2022/10/06 05:31:52;;;;;;;16.63;9.73;;;;;;;;;;4970077;28;20126;-80
2022/10/06 05:34:18;;;;;;;9.82;8.80;;;;;;;;;;4952156;28;20043;-78
2022/10/06 05:36:45;;;;;;;10.80;8.98;;;;;;;;;;4969750;28;20043;-79
2022/10/06 05:39:11;;;;;;;12.35;8.30;;;;;;;;;;4952663;28;20039;-78
2022/10/06 05:41:43;;;;;;;12.63;10.13;;;;;;;;;;4952401;28;20113;-79
2022/10/06 05:44:10;;;;;;;16.10;9.32;;;;;;;;;;4921226;28;20046;-79
2022/10/06 05:46:38;;;;;;;15.35;9.60;;;;;;;;;;4936268;28;20535;-79
2022/10/06 05:49:11;;;;;;;11.95;9.48;;;;;;;;;;4921302;28;20565;-79
2022/10/06 05:51:41;;;;;;;14.25;9.00;;;;;;;;;;4952248;28;20499;-79
2022/10/06 05:54:13;;;;;;;11.02;9.02;;;;;;;;;;4937025;28;20556;-79
2022/10/06 05:56:39;;;;;;;13.25;8.48;;;;;;;;;;4953192;28;20125;-79
2022/10/06 05:59:06;;;;;;;9.02;7.80;;;;;;;;;;4938008;28;20133;-79
2022/10/06 06:01:36;;;;;;;7.50;6.78;;;;;;;;;;4937227;28;20101;-80
2022/10/06 06:04:08;;;;;;;8.88;7.90;;;;;;;;;;4936548;28;20039;-79
2022/10/06 06:06:45;;;;;;;13.43;7.78;;;;;;;;;;4952782;28;20478;-78
2022/10/06 06:09:18;;;;;;;7.60;7.00;;;;;;;;;;4952279;28;20047;-79
2022/10/06 06:11:47;;;;;;;7.70;7.00;;;;;;;;;;4952221;28;20042;-79
2022/10/06 06:14:15;;;;;;;9.75;8.73;;;;;;;;;;4936340;28;20103;-80
2022/10/06 06:16:42;;;;;;;9.02;7.20;;;;;;;;;;4969719;28;20039;-79
2022/10/06 06:19:08;;;;;;;12.13;9.57;;;;;;;;;;4926127;28;20044;-78
2022/10/06 06:21:36;;;;;;;12.85;10.60;;;;;;;;;;4941105;28;20505;-80
2022/10/06 06:24:02;;;;;;;13.63;10.50;;;;;;;;;;4960939;28;20050;-80
2022/10/06 06:26:30;;;;;;;10.07;8.98;;;;;;;;;;4936007;28;20039;-79
2022/10/06 06:29:01;;;;;;;11.85;10.65;;;;;;;;;;4936274;28;20058;-80
2022/10/06 06:31:30;;;;;;;12.23;9.10;;;;;;;;;;4952881;28;20482;-79
2022/10/06 06:33:57;;;;;;;12.50;9.32;;;;;;;;;;4951874;28;20617;-79
2022/10/06 06:36:25;;;;;;;9.90;8.85;;;;;;;;;;4936479;28;20034;-78
2022/10/06 06:38:53;;;;;;;12.15;9.73;;;;;;;;;;4935860;28;20558;-80
2022/10/06 06:41:27;;;;;;;11.52;10.05;;;;;;;;;;4952066;28;20047;-79
2022/10/06 06:43:59;;;;;;;12.18;10.07;;;;;;;;;;4950987;28;20053;-79
2022/10/06 06:46:34;;;;;;;12.18;10.93;;;;;;;;;;4951069;28;20734;-80
2022/10/06 06:49:10;;;;;;;15.77;9.30;;;;;;;;;;4956692;28;20764;-79
2022/10/06 06:51:48;;;;;;;10.63;9.55;;;;;;;;;;4940743;28;20133;-79
2022/10/06 06:54:15;;;;;;;11.88;10.02;;;;;;;;;;4956981;28;20621;-82
2022/10/06 06:56:44;;;;;;;10.93;8.93;;;;;;;;;;4941634;28;20208;-83
2022/10/06 06:59:12;;;;;;;10.52;8.95;;;;;;;;;;4951270;28;20053;-83
2022/10/06 07:01:45;;;;;;;12.00;10.38;;;;;;;;;;4950462;28;20046;-81
2022/10/06 07:04:14;;;;;;;11.07;9.98;;;;;;;;;;4957616;28;20089;-81
2022/10/06 07:06:41;;;;;;;11.35;9.50;;;;;;;;;;4955217;28;20272;-79
2022/10/06 07:09:08;;;;;;;12.45;11.25;;;;;;;;;;4956677;28;20051;-80
2022/10/06 07:11:38;;;;;;;12.70;11.50;;;;;;;;;;4955524;28;20588;-80
2022/10/06 07:14:08;;;;;;;14.60;10.10;;;;;;;;;;4922523;28;20058;-80
2022/10/06 07:25:05;;;;;;;6.22;5.40;;;;;;;;;;4963807;28;20090;-85
2022/10/06 07:27:33;;;;;;;5.13;4.75;;;;;;;;;;4915157;29;20075;-84
2022/10/06 07:29:58;;;;;;;8.63;7.93;;;;;;;;;;4943191;28;20055;-83
2022/10/06 07:32:25;;;;;;;5.18;4.78;;;;;;;;;;4940246;28;20567;-76
2022/10/06 07:34:51;;;;;;;5.90;5.40;;;;;;;;;;4954181;28;20056;-74
2022/10/06 07:37:17;;;;;;;6.15;5.65;;;;;;;;;;4954282;28;20066;-72
2022/10/06 07:39:44;;;;;;;7.35;6.82;;;;;;;;;;4971310;28;20085;-73
2022/10/06 07:42:14;;;;;;;8.75;7.95;;;;;;;;;;4954633;28;20716;-75
2022/10/06 07:44:40;;;;;;;10.85;9.95;;;;;;;;;;4954520;28;20054;-75
2022/10/06 07:47:06;;;;;;;10.10;9.05;;;;;;;;;;4915515;28;20133;-76
2022/10/06 07:49:51;;;;;;;9.15;8.25;;;;;;;;;;4963134;28;20610;-73
2022/10/06 07:52:17;;;;;;;11.93;10.88;;;;;;;;;;4946909;28;20129;-74
2022/10/06 07:54:44;;;;;;;10.43;9.40;;;;;;;;;;4971098;28;20050;-74
2022/10/06 07:57:39;;;;;;;10.32;9.50;;;;;;;;;;4936810;28;20077;-73
2022/10/06 08:00:06;;;;;;;10.82;9.93;;;;;;;;;;4953708;28;20082;-75
2022/10/06 08:02:38;;;;;;;10.55;9.43;;;;;;;;;;4969464;28;20129;-74
2022/10/06 08:05:04;;;;;;;9.18;8.38;;;;;;;;;;4953564;28;20045;-75
2022/10/06 08:07:30;;;;;;;7.85;7.13;;;;;;;;;;4970184;28;20054;-74
2022/10/06 08:09:56;;;;;;;9.38;7.53;;;;;;;;;;4971096;28;20047;-72
2022/10/06 08:12:36;;;;;;;9.05;5.95;;;;;;;;;;4970918;28;20047;-74
2022/10/06 08:15:05;;;;;;;7.50;6.90;;;;;;;;;;4973382;28;20842;-75
2022/10/06 08:17:32;;;;;;;7.68;7.05;;;;;;;;;;4950106;28;20278;-75
2022/10/06 08:19:58;;;;;;;8.75;8.00;;;;;;;;;;4953093;28;20495;-73
2022/10/06 08:22:28;;;;;;;7.65;6.60;;;;;;;;;;4952897;28;20050;-72
2022/10/06 08:24:57;;;;;;;7.15;6.53;;;;;;;;;;4953557;28;20049;-73
2022/10/06 08:27:27;;;;;;;5.50;5.10;;;;;;;;;;4966620;28;20055;-73
2022/10/06 08:29:53;;;;;;;6.32;5.78;;;;;;;;;;4940662;28;20088;-74
2022/10/06 08:32:20;;;;;;;5.90;5.50;;;;;;;;;;4970114;28;20130;-72
2022/10/06 08:34:46;;;;;;;4.68;4.38;;;;;;;;;;4930314;28;20471;-74
2022/10/06 08:37:12;;;;;;;5.00;4.40;;;;;;;;;;4964078;28;20055;-75
2022/10/06 08:39:40;;;;;;;6.82;4.82;;;;;;;;;;4941069;28;20676;-75
2022/10/06 08:42:07;;;;;;;5.22;4.78;;;;;;;;;;4948544;28;20042;-75
2022/10/06 08:44:34;;;;;;;5.38;4.93;;;;;;;;;;4952751;28;20471;-74
2022/10/06 08:47:01;;;;;;;5.40;4.80;;;;;;;;;;4932518;28;20062;-74
2022/10/06 08:49:37;;;;;;;4.53;4.13;;;;;;;;;;4952355;28;20056;-74
2022/10/06 08:52:09;;;;;;;4.90;4.43;;;;;;;;;;4941077;28;20034;-75
2022/10/06 08:54:38;;;;;;;6.80;6.18;;;;;;;;;;4956083;28;20039;-74
2022/10/06 08:57:07;;;;;;;4.65;4.32;;;;;;;;;;4980397;28;20184;-74
2022/10/06 08:59:34;;;;;;;5.32;4.82;;;;;;;;;;4938395;28;20063;-74
2022/10/06 09:02:04;;;;;;;4.40;4.10;;;;;;;;;;4953382;28;20058;-74
2022/10/06 09:04:30;;;;;;;5.35;4.95;;;;;;;;;;4944492;28;20624;-75
2022/10/06 09:07:07;;;;;;;5.05;4.65;;;;;;;;;;4933140;28;20051;-74
2022/10/06 09:09:52;;;;;;;5.72;4.95;;;;;;;;;;4933191;28;20051;-75
2022/10/06 09:12:19;;;;;;;4.32;4.05;;;;;;;;;;4941965;28;20050;-75
2022/10/06 09:14:49;;;;;;;10.63;5.35;;;;;;;;;;4933489;28;20224;-74
2022/10/06 09:17:17;;;;;;;5.37;4.83;;;;;;;;;;4950601;28;20050;-74
2022/10/06 09:19:57;;;;;;;5.63;5.22;;;;;;;;;;4948694;28;20105;-75
2022/10/06 09:22:23;;;;;;;5.47;4.97;;;;;;;;;;4965961;28;20054;-74
2022/10/06 09:24:54;;;;;;;4.43;4.07;;;;;;;;;;4931513;28;20425;-73
2022/10/06 09:27:20;;;;;;;5.47;4.95;;;;;;;;;;4969386;28;20094;-72
2022/10/06 09:29:49;;;;;;;6.38;5.88;;;;;;;;;;4954409;28;20058;-73
2022/10/06 09:32:18;;;;;;;6.85;6.25;;;;;;;;;;4940209;28;20049;-74
2022/10/06 09:34:51;;;;;;;6.97;6.35;;;;;;;;;;4956966;28;20046;-74
2022/10/06 09:37:17;;;;;;;6.45;5.95;;;;;;;;;;4935797;28;20126;-73
2022/10/06 09:39:44;;;;;;;7.88;5.00;;;;;;;;;;4958023;28;20113;-73
2022/10/06 09:42:12;;;;;;;5.88;5.28;;;;;;;;;;4951720;28;20385;-73
2022/10/06 09:44:51;;;;;;;5.75;5.20;;;;;;;;;;4951574;28;20431;-71
2022/10/06 09:47:32;;;;;;;6.07;5.20;;;;;;;;;;4968785;28;20474;-72
2022/10/06 09:50:13;;;;;;;5.82;4.93;;;;;;;;;;4950443;28;20043;-72
2022/10/06 09:52:42;;;;;;;7.30;5.05;;;;;;;;;;4951472;28;20388;-73
2022/10/06 09:55:16;;;;;;;5.93;5.43;;;;;;;;;;4951955;28;20072;-74
2022/10/06 09:57:52;;;;;;;6.28;5.20;;;;;;;;;;4968906;28;20046;-75
2022/10/06 10:00:31;;;;;;;5.50;5.00;;;;;;;;;;4951358;28;20040;-74
2022/10/06 10:02:58;;;;;;;5.00;4.60;;;;;;;;;;4951532;28;20383;-74
2022/10/06 10:05:24;;;;;;;7.07;5.90;;;;;;;;;;4935635;28;20047;-74
2022/10/06 10:08:17;;;;;;;5.40;4.90;;;;;;;;;;4968465;28;20047;-75
2022/10/06 10:10:43;;;;;;;7.00;5.22;;;;;;;;;;4951552;28;20080;-74
2022/10/06 10:13:21;;;;;;;9.80;5.65;;;;;;;;;;4951473;28;20066;-74
2022/10/06 10:15:57;;;;;;;6.35;5.70;;;;;;;;;;4968569;28;20078;-75
2022/10/06 10:18:27;;;;;;;6.97;6.28;;;;;;;;;;4951534;28;20042;-75
2022/10/06 10:21:07;;;;;;;4.60;4.30;;;;;;;;;;4951026;28;20045;-74
2022/10/06 10:23:35;;;;;;;7.45;6.70;;;;;;;;;;4951000;28;20047;-75
2022/10/06 10:26:04;;;;;;;6.38;5.88;;;;;;;;;;4951155;28;20458;-75
2022/10/06 10:28:41;;;;;;;6.20;5.20;;;;;;;;;;4969244;28;20054;-74
2022/10/06 10:31:25;;;;;;;6.07;5.50;;;;;;;;;;4968845;28;20105;-75
2022/10/06 10:34:11;;;;;;;10.75;5.68;;;;;;;;;;4950935;28;20058;-74
2022/10/06 10:36:39;;;;;;;6.85;5.75;;;;;;;;;;4934267;28;20039;-75
2022/10/06 10:39:06;;;;;;;7.38;6.35;;;;;;;;;;4951089;28;20504;-75
2022/10/06 10:41:35;;;;;;;7.38;6.00;;;;;;;;;;4951305;28;20094;-74
2022/10/06 10:44:06;;;;;;;8.88;6.15;;;;;;;;;;4951206;28;20051;-75
2022/10/06 10:46:32;;;;;;;;;;;;;;;;;;4968997;28;20526;-76
2022/10/06 10:49:07;;;;;;;7.18;6.47;;;;;;;;;;4952331;28;19922;-74
2022/10/06 10:51:33;;;;;;;6.40;5.80;;;;;;;;;;4968414;28;20047;-75
2022/10/06 10:54:07;;;;;;;9.55;5.80;;;;;;;;;;4968877;28;20043;-74
2022/10/06 10:56:33;;;;;;;6.43;5.55;;;;;;;;;;4951664;28;20049;-76
2022/10/06 10:59:03;;;;;;;6.47;5.88;;;;;;;;;;4968942;28;20051;-75
2022/10/06 11:01:31;;;;;;;7.47;5.95;;;;;;;;;;4960323;28;20138;-74
2022/10/06 11:03:57;;;;;;;6.05;5.53;;;;;;;;;;4957704;28;20094;-75
2022/10/06 11:06:35;;;;;;;8.52;5.25;;;;;;;;;;4973558;28;20039;-74
2022/10/06 11:09:04;;;;;;;6.38;5.88;;;;;;;;;;4968959;28;20086;-74
2022/10/06 11:11:39;;;;;;;7.20;4.90;;;;;;;;;;4968801;28;20042;-75
2022/10/06 11:14:08;;;;;;;5.50;5.00;;;;;;;;;;4968313;28;20082;-75
2022/10/06 11:17:03;;;;;;;5.05;4.65;;;;;;;;;;4935053;28;20117;-74
2022/10/06 11:19:34;;;;;;;5.00;4.60;;;;;;;;;;4947616;28;20090;-76
2022/10/06 11:22:00;;;;;;;4.97;4.55;;;;;;;;;;4950825;28;20050;-76
2022/10/06 11:24:26;;;;;;;5.97;4.60;;;;;;;;;;4968256;28;20043;-76
2022/10/06 11:27:15;;;;;;;6.15;4.95;;;;;;;;;;4950676;28;20507;-76
2022/10/06 11:29:50;;;;;;;5.00;4.60;;;;;;;;;;4935207;28;20059;-76
2022/10/06 11:32:19;;;;;;;5.47;4.90;;;;;;;;;;4953299;28;20547;-76
2022/10/06 11:34:49;;;;;;;5.72;5.25;;;;;;;;;;4972035;28;20053;-76
2022/10/06 11:37:21;;;;;;;5.60;5.03;;;;;;;;;;4971976;28;20097;-76
2022/10/06 11:39:49;;;;;;;6.35;5.30;;;;;;;;;;4954401;28;20047;-76
2022/10/06 11:42:24;;;;;;;4.97;4.50;;;;;;;;;;4938037;28;20573;-75
2022/10/06 11:44:54;;;;;;;6.65;5.13;;;;;;;;;;4971013;28;20046;-75
2022/10/06 11:47:22;;;;;;;5.30;4.90;;;;;;;;;;4953923;28;20039;-75
2022/10/06 11:49:50;;;;;;;6.30;5.90;;;;;;;;;;4953813;28;20081;-75
2022/10/06 11:52:17;;;;;;;6.70;5.50;;;;;;;;;;4958866;28;20035;-76
2022/10/06 11:54:46;;;;;;;7.07;5.18;;;;;;;;;;4952034;28;20106;-75
2022/10/06 11:57:21;;;;;;;6.90;6.20;;;;;;;;;;4934900;28;20074;-76
2022/10/06 11:59:51;;;;;;;6.45;5.95;;;;;;;;;;4951713;28;20514;-75
2022/10/06 12:02:29;;;;;;;7.47;5.75;;;;;;;;;;4935108;29;20047;-76
2022/10/06 12:05:08;;;;;;;6.10;5.05;;;;;;;;;;4933987;28;20047;-75
2022/10/06 12:07:52;;;;;;;5.90;5.25;;;;;;;;;;4951506;28;20042;-76
2022/10/06 12:10:27;;;;;;;6.57;5.88;;;;;;;;;;4951673;28;20570;-75
2022/10/06 12:12:56;;;;;;;8.50;5.13;;;;;;;;;;4934231;28;20158;-76
2022/10/06 12:15:27;;;;;;;7.78;5.47;;;;;;;;;;4934693;28;20070;-76
2022/10/06 12:18:08;;;;;;;8.23;5.80;;;;;;;;;;4918414;29;20035;-75
2022/10/06 12:20:35;;;;;;;6.65;6.13;;;;;;;;;;4934545;28;20077;-75
2022/10/06 12:23:07;;;;;;;6.30;5.70;;;;;;;;;;4954824;28;20039;-76
2022/10/06 12:25:36;;;;;;;6.75;6.07;;;;;;;;;;4971006;28;20530;-76
2022/10/06 12:28:19;;;;;;;6.35;5.72;;;;;;;;;;4952982;28;20126;-75
2022/10/06 12:31:04;;;;;;;6.05;5.55;;;;;;;;;;4970697;28;20054;-76
2022/10/06 12:33:39;;;;;;;9.15;5.40;;;;;;;;;;4953563;28;20038;-75
2022/10/06 12:36:19;;;;;;;5.95;5.28;;;;;;;;;;4954383;28;20158;-76
2022/10/06 12:39:01;;;;;;;6.53;5.88;;;;;;;;;;4970763;28;20054;-75
2022/10/06 12:41:46;;;;;;;6.15;5.50;;;;;;;;;;4972940;28;20507;-75
2022/10/06 12:44:22;;;;;;;8.63;5.90;;;;;;;;;;4970106;28;20074;-75
2022/10/06 12:46:48;;;;;;;6.80;5.93;;;;;;;;;;4952916;28;20049;-75
2022/10/06 12:49:20;;;;;;;5.60;5.10;;;;;;;;;;4952977;28;20067;-75
2022/10/06 12:51:47;;;;;;;6.20;5.15;;;;;;;;;;4952880;28;20577;-75
2022/10/06 12:54:18;;;;;;;6.47;5.88;;;;;;;;;;4970078;28;20050;-76
2022/10/06 12:56:55;;;;;;;6.20;5.60;;;;;;;;;;4970006;28;20045;-75
2022/10/06 12:59:21;;;;;;;8.88;6.05;;;;;;;;;;4953296;28;20423;-75
2022/10/06 13:01:57;;;;;;;5.38;4.97;;;;;;;;;;4952810;28;20049;-75
2022/10/06 13:04:30;;;;;;;10.38;6.00;;;;;;;;;;4969984;28;20051;-75
2022/10/06 13:06:56;;;;;;;6.90;6.22;;;;;;;;;;4952483;28;20130;-76
2022/10/06 13:09:21;;;;;;;9.57;6.70;;;;;;;;;;4952731;28;20114;-75
2022/10/06 13:11:48;;;;;;;9.85;5.97;;;;;;;;;;4952155;28;20109;-75
2022/10/06 13:14:14;;;;;;;5.88;5.18;;;;;;;;;;4969655;28;20046;-75
2022/10/06 13:16:44;;;;;;;9.02;6.40;;;;;;;;;;4969399;28;20111;-76
2022/10/06 13:19:14;;;;;;;5.90;5.30;;;;;;;;;;4952295;28;20055;-76
2022/10/06 13:21:40;;;;;;;8.02;5.20;;;;;;;;;;4951978;28;20061;-75
2022/10/06 13:24:09;;;;;;;6.22;5.65;;;;;;;;;;4969310;28;20050;-75
2022/10/06 13:26:35;;;;;;;7.65;5.70;;;;;;;;;;4952423;28;20038;-75
2022/10/06 13:29:01;;;;;;;6.10;5.00;;;;;;;;;;4969052;28;20141;-75
2022/10/06 13:31:27;;;;;;;5.30;4.88;;;;;;;;;;4952286;28;20126;-75
2022/10/06 13:33:59;;;;;;;5.32;4.93;;;;;;;;;;4951886;28;20054;-76
2022/10/06 13:36:26;;;;;;;6.60;4.95;;;;;;;;;;4968017;28;20045;-75
2022/10/06 13:38:52;;;;;;;7.03;5.78;;;;;;;;;;4968898;28;20105;-75
2022/10/06 13:41:21;;;;;;;4.97;4.55;;;;;;;;;;4934582;28;20043;-75
2022/10/06 13:44:07;;;;;;;5.85;5.38;;;;;;;;;;4954297;28;20156;-75
2022/10/06 13:46:38;;;;;;;7.68;5.63;;;;;;;;;;4918400;28;20134;-75
2022/10/06 13:49:24;;;;;;;12.10;7.63;;;;;;;;;;4951600;28;20047;-75
2022/10/06 13:51:51;;;;;;;6.82;6.28;;;;;;;;;;4958122;28;20034;-75
2022/10/06 13:54:23;;;;;;;9.57;6.78;;;;;;;;;;4941764;28;20035;-76
2022/10/06 13:56:49;;;;;;;9.75;6.25;;;;;;;;;;4909041;28;20050;-75
2022/10/06 13:59:28;;;;;;;11.60;6.80;;;;;;;;;;4942605;28;20043;-74
2022/10/06 14:02:01;;;;;;;8.40;5.75;;;;;;;;;;4953769;28;20043;-76
2022/10/06 14:04:27;;;;;;;7.65;4.28;;;;;;;;;;4946226;28;20102;-76
2022/10/06 14:06:54;;;;;;;6.43;5.80;;;;;;;;;;4943203;28;20035;-76
2022/10/06 14:09:24;;;;;;;6.90;6.28;;;;;;;;;;4942877;28;20047;-79
2022/10/06 14:11:51;;;;;;;9.70;6.30;;;;;;;;;;4941878;28;20065;-75
2022/10/06 14:14:17;;;;;;;9.40;6.70;;;;;;;;;;4924697;28;20059;-76
2022/10/06 14:16:49;;;;;;;8.05;6.07;;;;;;;;;;4900639;28;20503;-75
2022/10/06 14:19:28;;;;;;;5.90;5.40;;;;;;;;;;4916169;28;20519;-75
2022/10/06 14:21:53;;;;;;;5.75;5.18;;;;;;;;;;4942981;28;20072;-74
2022/10/06 14:24:25;;;;;;;7.55;6.78;;;;;;;;;;4944109;28;20499;-74
2022/10/06 14:26:53;;;;;;;8.20;6.53;;;;;;;;;;4940441;28;20039;-73
2022/10/06 14:29:19;;;;;;;7.80;7.03;;;;;;;;;;4968752;28;20100;-75
2022/10/06 14:31:45;;;;;;;10.25;7.25;;;;;;;;;;4970270;28;20078;-74
2022/10/06 14:34:13;;;;;;;11.02;7.68;;;;;;;;;;4940654;28;20042;-81
2022/10/06 14:36:39;;;;;;;10.63;7.90;;;;;;;;;;4995759;28;20039;-81
2022/10/06 14:39:05;;;;;;;12.05;8.15;;;;;;;;;;4964953;28;20099;-82
2022/10/06 14:41:31;;;;;;;9.90;7.40;;;;;;;;;;4964002;28;20047;-81
2022/10/06 14:44:01;;;;;;;10.68;5.82;;;;;;;;;;4954488;28;20134;-82
2022/10/06 14:46:28;;;;;;;14.80;7.03;;;;;;;;;;4952833;29;20070;-82
2022/10/06 14:48:54;;;;;;;8.18;7.07;;;;;;;;;;4934684;28;20059;-81
2022/10/06 14:51:20;;;;;;;7.00;6.30;;;;;;;;;;4956468;28;20043;-81
2022/10/06 14:53:52;;;;;;;18.15;8.77;;;;;;;;;;4952990;28;20114;-82
2022/10/06 14:56:17;;;;;;;7.32;6.63;;;;;;;;;;4952511;28;20031;-82
2022/10/06 14:58:44;;;;;;;9.80;7.63;;;;;;;;;;4952895;28;20070;-82
2022/10/06 15:01:13;;;;;;;9.48;7.57;;;;;;;;;;4968187;28;20046;-80
2022/10/06 15:03:39;;;;;;;10.98;7.65;;;;;;;;;;4969909;28;20046;-81
2022/10/06 15:08:50;;;;;;;10.88;7.97;;;;;;;;;;4973305;28;20145;-83